createdAt,value
2018-02-06T00:01:18.188Z,102089.39
2018-02-06T00:03:45.780Z,102085.02
2018-02-06T00:06:14.316Z,102077.80
2018-02-06T00:08:42.006Z,102093.88
2018-02-06T00:11:09.595Z,102089.75
2018-02-06T00:13:37.180Z,102085.47
2018-02-06T00:16:04.805Z,102079.89
2018-02-06T00:18:32.400Z,102082.30
2018-02-06T00:20:59.984Z,102086.91
2018-02-06T00:23:27.568Z,102081.19
2018-02-06T00:25:55.242Z,102075.69
2018-02-06T00:28:22.831Z,102076.33
2018-02-06T00:30:50.467Z,102070.66
2018-02-06T00:33:18.093Z,102072.24
2018-02-06T00:35:45.676Z,102069.16
2018-02-06T00:38:13.297Z,102063.95
2018-02-06T00:40:40.880Z,102068.19
2018-02-06T00:43:08.464Z,102057.91
2018-02-06T00:45:36.048Z,102066.38
2018-02-06T00:48:03.644Z,102065.92
2018-02-06T00:50:31.226Z,102057.89
2018-02-06T00:52:58.807Z,102059.48
2018-02-06T00:55:26.404Z,102048.49
2018-02-06T00:57:53.985Z,102045.09
2018-02-06T01:00:21.604Z,102045.88
2018-02-06T01:02:49.184Z,102043.34
2018-02-06T01:05:16.771Z,102036.20
2018-02-06T01:07:44.384Z,102041.31
2018-02-06T01:10:12.084Z,102042.57
2018-02-06T01:12:39.669Z,102034.83
2018-02-06T01:15:07.270Z,102031.75
2018-02-06T01:17:34.934Z,102034.64
2018-02-06T01:20:02.524Z,102026.44
2018-02-06T01:22:30.104Z,102028.45
2018-02-06T01:24:57.695Z,102023.75
2018-02-06T01:27:25.380Z,102019.48
2018-02-06T01:29:52.963Z,102016.45
2018-02-06T01:32:20.637Z,102007.09
2018-02-06T01:34:48.215Z,102004.17
2018-02-06T01:37:15.803Z,102002.79
2018-02-06T01:39:43.391Z,102001.12
2018-02-06T01:42:10.978Z,101986.33
2018-02-06T01:44:38.609Z,101985.92
2018-02-06T01:47:06.195Z,101985.92
2018-02-06T01:49:33.782Z,101988.44
2018-02-06T01:52:01.363Z,101981.69
2018-02-06T01:54:28.948Z,101973.66
2018-02-06T01:56:56.531Z,101969.41
2018-02-06T01:59:24.117Z,101969.39
2018-02-06T02:01:51.695Z,101960.53
2018-02-06T02:04:19.279Z,101960.25
2018-02-06T02:06:46.905Z,101961.06
2018-02-06T02:09:14.483Z,101964.86
2018-02-06T02:11:42.072Z,101956.77
2018-02-06T02:14:09.672Z,101954.61
2018-02-06T02:16:37.257Z,101952.45
2018-02-06T02:19:04.844Z,101943.93
2018-02-06T02:21:32.436Z,101940.95
2018-02-06T02:24:00.126Z,101939.20
2018-02-06T02:26:27.711Z,101935.85
2018-02-06T02:28:55.296Z,101934.47
2018-02-06T02:31:22.922Z,101934.39
2018-02-06T02:33:50.533Z,101933.10
2018-02-06T02:36:18.119Z,101933.06
2018-02-06T02:38:45.755Z,101923.12
2018-02-06T02:41:13.344Z,101923.80
2018-02-06T04:39:22.263Z,101834.22
2018-02-06T04:41:49.851Z,101830.37
2018-02-06T04:44:17.438Z,101826.98
2018-02-06T04:46:45.048Z,101823.14
2018-02-06T04:49:12.642Z,101814.69
2018-02-06T04:51:40.227Z,101816.77
2018-02-06T04:54:08.646Z,101810.01
2018-02-06T04:56:36.274Z,101813.00
2018-02-06T04:59:03.859Z,101808.07
2018-02-06T05:01:31.453Z,101807.59
2018-02-06T05:03:59.040Z,101807.84
2018-02-06T05:06:26.626Z,101806.48
2018-02-06T05:08:54.211Z,101804.38
2018-02-06T05:11:21.807Z,101810.80
2018-02-06T05:13:49.397Z,101803.39
2018-02-06T05:16:17.007Z,101802.38
2018-02-06T05:18:44.600Z,101792.55
2018-02-06T05:21:12.224Z,101793.14
2018-02-06T05:23:39.810Z,101787.20
2018-02-06T05:26:07.435Z,101791.30
2018-02-06T05:28:35.114Z,101787.00
2018-02-06T05:31:02.703Z,101785.75
2018-02-06T05:33:30.335Z,101779.83
2018-02-06T05:35:58.010Z,101781.55
2018-02-06T05:38:25.668Z,101783.30
2018-02-06T05:40:53.328Z,101780.39
2018-02-06T05:43:20.924Z,101785.63
2018-02-06T05:45:48.508Z,101788.59
2018-02-06T05:48:16.099Z,101786.47
2018-02-06T05:50:43.687Z,101780.91
2018-02-06T05:53:12.152Z,101775.30
2018-02-06T05:55:40.467Z,101771.00
2018-02-06T05:58:08.999Z,101774.73
2018-02-06T06:00:36.591Z,101767.11
2018-02-06T06:03:04.448Z,101762.41
2018-02-06T06:05:32.035Z,101761.53
2018-02-06T06:07:59.620Z,101769.11
2018-02-06T06:10:27.212Z,101762.29
2018-02-06T06:12:54.835Z,101766.13
2018-02-06T06:15:22.422Z,101757.63
2018-02-06T06:17:50.044Z,101761.45
2018-02-06T06:20:17.631Z,101759.83
2018-02-06T06:22:46.053Z,101760.16
2018-02-06T06:25:13.720Z,101760.17
2018-02-06T06:27:41.379Z,101761.92
2018-02-06T06:30:09.006Z,101763.28
2018-02-06T06:32:36.609Z,101764.14
2018-02-06T06:35:04.230Z,101760.77
2018-02-06T06:37:31.922Z,101765.52
2018-02-06T06:39:59.591Z,101766.89
2018-02-06T06:42:27.287Z,101764.70
2018-02-06T06:44:54.880Z,101760.89
2018-02-06T06:47:22.524Z,101763.41
2018-02-06T06:49:50.115Z,101758.80
2018-02-06T06:52:17.698Z,101752.44
2018-02-06T06:54:45.364Z,101756.76
2018-02-06T06:57:13.026Z,101758.91
2018-02-06T06:59:40.647Z,101750.49
2018-02-06T07:02:08.281Z,101745.37
2018-02-06T07:04:35.962Z,101752.29
2018-02-06T07:07:03.582Z,101744.58
2018-02-06T07:09:31.355Z,101751.41
2018-02-06T07:11:59.056Z,101749.84
2018-02-06T07:14:26.651Z,101747.55
2018-02-06T07:16:54.279Z,101739.91
2018-02-06T07:19:21.905Z,101745.05
2018-02-06T07:21:49.487Z,101744.71
2018-02-06T07:24:17.314Z,101750.28
2018-02-06T07:26:44.909Z,101734.56
2018-02-06T07:29:12.531Z,101740.56
2018-02-06T07:31:40.114Z,101744.84
2018-02-06T07:34:07.729Z,101744.09
2018-02-06T07:36:35.309Z,101745.41
2018-02-06T07:39:02.928Z,101745.91
2018-02-06T07:41:30.584Z,101735.00
2018-02-06T07:43:58.163Z,101736.24
2018-02-06T07:46:25.800Z,101733.30
2018-02-06T07:48:54.082Z,101736.34
2018-02-06T07:51:21.662Z,101733.35
2018-02-06T07:53:49.301Z,101732.98
2018-02-06T07:56:16.915Z,101734.77
2018-02-06T07:58:44.509Z,101726.75
2018-02-06T08:01:12.191Z,101723.85
2018-02-06T08:03:39.787Z,101726.04
2018-02-06T08:06:07.381Z,101730.27
2018-02-06T08:08:34.967Z,101720.50
2018-02-06T08:11:02.551Z,101715.01
2018-02-06T08:13:30.131Z,101719.70
2018-02-06T08:15:57.792Z,101712.92
2018-02-06T08:18:25.387Z,101715.07
2018-02-06T08:20:52.974Z,101711.26
2018-02-06T08:23:20.568Z,101713.38
2018-02-06T08:25:48.152Z,101711.70
2018-02-06T08:28:15.790Z,101712.56
2018-02-06T08:30:43.375Z,101710.00
2018-02-06T08:33:10.954Z,101707.05
2018-02-06T08:35:38.836Z,101702.77
2018-02-06T08:38:06.447Z,101703.20
2018-02-06T08:40:34.027Z,101697.22
2018-02-06T08:43:01.661Z,101690.83
2018-02-06T08:45:29.254Z,101697.62
2018-02-06T08:47:56.845Z,101689.09
2018-02-06T08:50:24.615Z,101688.22
2018-02-06T08:52:52.266Z,101686.48
2018-02-06T08:55:19.850Z,101688.19
2018-02-06T08:57:47.450Z,101688.98
2018-02-06T09:00:15.066Z,101698.79
2018-02-06T09:02:42.660Z,101692.81
2018-02-06T09:05:10.291Z,101683.82
2018-02-06T09:07:37.963Z,101689.77
2018-02-06T09:10:05.571Z,101683.25
2018-02-06T09:12:33.154Z,101681.05
2018-02-06T09:15:00.740Z,101677.58
2018-02-06T09:17:28.327Z,101670.25
2018-02-06T09:19:55.931Z,101670.67
2018-02-06T09:22:23.518Z,101674.08
2018-02-06T09:24:51.195Z,101659.80
2018-02-06T09:27:18.787Z,101661.47
2018-02-06T09:29:46.420Z,101666.16
2018-02-06T09:32:14.110Z,101659.28
2018-02-06T09:34:41.750Z,101671.66
2018-02-06T09:37:09.410Z,101669.00
2018-02-06T09:39:36.989Z,101667.56
2018-02-06T09:42:04.626Z,101663.23
2018-02-06T09:44:32.210Z,101667.93
2018-02-06T09:46:59.846Z,101665.22
2018-02-06T09:49:27.436Z,101660.48
2018-02-06T09:51:55.027Z,101658.71
2018-02-06T09:54:22.635Z,101655.66
2018-02-06T09:56:50.258Z,101652.11
2018-02-06T09:59:17.895Z,101657.53
2018-02-06T10:01:45.531Z,101651.83
2018-02-06T10:04:13.132Z,101651.71
2018-02-06T10:06:40.724Z,101641.22
2018-02-06T10:09:08.378Z,101632.23
2018-02-06T10:11:36.039Z,101642.02
2018-02-06T10:14:03.738Z,101644.59
2018-02-06T10:16:31.343Z,101634.24
2018-02-06T10:18:58.962Z,101622.11
2018-02-06T10:21:26.547Z,101625.05
2018-02-06T10:23:54.163Z,101620.30
2018-02-06T10:26:21.838Z,101605.41
2018-02-06T10:28:49.505Z,101607.69
2018-02-06T10:31:17.101Z,101605.91
2018-02-06T10:33:44.728Z,101602.56
2018-02-06T10:36:13.083Z,101594.26
2018-02-06T10:38:40.701Z,101597.34
2018-02-06T10:41:08.320Z,101594.11
2018-02-06T10:43:35.941Z,101583.00
2018-02-06T10:46:03.524Z,101587.68
2018-02-06T10:48:31.214Z,101590.29
2018-02-06T10:50:58.798Z,101589.75
2018-02-06T10:53:26.439Z,101580.00
2018-02-06T10:55:54.026Z,101583.08
2018-02-06T10:58:21.607Z,101574.08
2018-02-06T11:00:49.327Z,101572.66
2018-02-06T11:03:17.700Z,101575.03
2018-02-06T11:05:45.297Z,101567.48
2018-02-06T11:08:12.927Z,101560.75
2018-02-06T11:10:40.682Z,101562.08
2018-02-06T11:13:08.265Z,101560.83
2018-02-06T11:15:35.975Z,101561.44
2018-02-06T11:18:03.600Z,101558.25
2018-02-06T11:20:31.181Z,101548.86
2018-02-06T11:22:58.759Z,101554.94
2018-02-06T11:25:26.365Z,101550.47
2018-02-06T11:27:53.983Z,101543.23
2018-02-06T11:30:21.586Z,101547.66
2018-02-06T11:32:49.172Z,101544.17
2018-02-06T11:35:16.814Z,101531.49
2018-02-06T11:37:44.474Z,101525.15
2018-02-06T11:40:12.051Z,101520.34
2018-02-06T11:42:39.665Z,101511.33
2018-02-06T11:45:07.251Z,101513.61
2018-02-06T11:47:34.850Z,101504.13
2018-02-06T11:50:02.480Z,101496.02
2018-02-06T11:52:30.063Z,101495.56
2018-02-06T11:54:57.626Z,101490.84
2018-02-06T11:57:25.194Z,101493.84
2018-02-06T11:59:52.774Z,101488.84
2018-02-06T12:02:20.349Z,101479.61
2018-02-06T12:04:47.951Z,101484.59
2018-02-06T12:07:15.515Z,101486.05
2018-02-06T12:09:43.083Z,101481.49
2018-02-06T12:12:10.684Z,101477.95
2018-02-06T12:14:38.302Z,101470.28
2018-02-06T12:17:05.954Z,101471.56
2018-02-06T12:19:33.616Z,101463.02
2018-02-06T12:22:01.203Z,101459.64
2018-02-06T12:24:28.792Z,101458.30
2018-02-06T12:26:56.364Z,101456.00
2018-02-06T12:29:23.927Z,101458.08
2018-02-06T12:31:51.531Z,101456.48
2018-02-06T12:34:19.114Z,101454.02
2018-02-06T12:36:46.730Z,101449.84
2018-02-06T12:39:14.311Z,101434.48
2018-02-06T12:41:41.966Z,101434.16
2018-02-06T12:44:09.592Z,101426.75
2018-02-06T12:46:37.158Z,101425.09
2018-02-06T12:49:05.634Z,101415.52
2018-02-06T12:51:33.204Z,101418.86
2018-02-06T12:54:00.806Z,101409.52
2018-02-06T12:56:28.385Z,101403.62
2018-02-06T12:58:56.007Z,101396.64
2018-02-06T13:01:23.575Z,101390.74
2018-02-06T13:03:51.342Z,101387.64
2018-02-06T13:06:18.940Z,101390.48
2018-02-06T13:08:47.222Z,101390.84
2018-02-06T13:11:14.842Z,101388.92
2018-02-06T13:13:42.459Z,101380.13
2018-02-06T13:16:10.031Z,101377.27
2018-02-06T13:18:37.598Z,101370.78
2018-02-06T13:21:05.172Z,101369.07
2018-02-06T13:23:32.783Z,101362.20
2018-02-06T13:26:00.363Z,101361.81
2018-02-06T13:28:27.970Z,101361.23
2018-02-06T13:30:55.738Z,101361.50
2018-02-06T13:33:23.319Z,101359.09
2018-02-06T13:35:50.895Z,101353.78
2018-02-06T13:38:18.458Z,101356.19
2018-02-06T13:40:46.722Z,101352.28
2018-02-06T13:43:14.286Z,101351.80
2018-02-06T13:45:41.858Z,101348.25
2018-02-06T13:48:09.430Z,101345.30
2018-02-06T13:50:37.004Z,101339.30
2018-02-06T13:53:04.571Z,101343.79
2018-02-06T13:55:32.141Z,101352.44
2018-02-06T13:57:59.886Z,101341.01
2018-02-06T14:00:27.524Z,101343.31
2018-02-06T14:02:56.088Z,101344.56
2018-02-06T14:05:23.716Z,101346.38
2018-02-06T14:07:51.298Z,101338.61
2018-02-06T14:10:18.876Z,101336.46
2018-02-06T14:12:47.400Z,101329.53
2018-02-06T14:15:14.979Z,101334.62
2018-02-06T14:17:42.574Z,101330.54
2018-02-06T14:20:10.199Z,101326.47
2018-02-06T14:22:37.819Z,101328.09
2018-02-06T14:25:05.400Z,101324.06
2018-02-06T14:27:33.020Z,101319.35
2018-02-06T14:30:00.663Z,101316.92
2018-02-06T14:32:28.245Z,101315.10
2018-02-06T14:34:56.563Z,101307.07
2018-02-06T14:37:24.494Z,101305.04
2018-02-06T14:39:52.070Z,101309.39
2018-02-06T14:42:19.734Z,101291.30
2018-02-06T14:44:47.316Z,101301.44
2018-02-06T14:47:14.891Z,101294.73
2018-02-06T14:49:42.466Z,101290.94
2018-02-06T14:52:10.059Z,101289.38
2018-02-06T14:54:37.647Z,101293.98
2018-02-06T14:57:05.230Z,101290.38
2018-02-06T14:59:32.819Z,101288.18
2018-02-06T15:02:00.409Z,101289.41
2018-02-06T15:04:27.996Z,101286.16
2018-02-06T15:06:55.671Z,101280.73
2018-02-06T15:09:23.384Z,101279.54
2018-02-06T15:11:50.969Z,101278.11
2018-02-06T15:14:18.706Z,101278.55
2018-02-06T15:16:46.290Z,101278.22
2018-02-06T15:19:13.914Z,101273.03
2018-02-06T15:21:41.501Z,101272.73
2018-02-06T15:24:09.143Z,101267.94
2018-02-06T15:26:36.730Z,101269.42
2018-02-06T15:29:04.374Z,101264.32
2018-02-06T15:31:31.990Z,101272.31
2018-02-06T15:33:59.572Z,101276.31
2018-02-06T15:36:27.163Z,101269.30
2018-02-06T15:38:54.825Z,101270.80
2018-02-06T15:41:22.410Z,101263.95
2018-02-06T15:43:50.035Z,101269.59
2018-02-06T15:46:17.709Z,101273.07
2018-02-06T15:48:45.296Z,101268.88
2018-02-06T15:51:12.881Z,101267.25
2018-02-06T15:53:40.503Z,101261.63
2018-02-06T15:56:08.162Z,101269.09
2018-02-06T15:58:35.760Z,101270.10
2018-02-06T16:01:07.938Z,101270.19
2018-02-06T16:03:36.127Z,101271.22
2018-02-06T16:06:03.830Z,101271.72
2018-02-06T16:08:31.420Z,101278.20
2018-02-06T16:10:59.052Z,101278.31
2018-02-06T16:13:30.543Z,101263.00
2018-02-06T16:15:58.275Z,101278.77
2018-02-06T16:18:25.967Z,101284.11
2018-02-06T16:20:53.987Z,101279.90
2018-02-06T16:23:21.580Z,101287.69
2018-02-06T16:25:49.179Z,101276.64
2018-02-06T16:28:16.929Z,101280.16
2018-02-06T16:30:44.518Z,101274.57
2018-02-06T16:33:12.107Z,101276.86
2018-02-06T16:35:39.736Z,101272.16
2018-02-06T16:38:07.350Z,101266.25
2018-02-06T16:40:34.971Z,101265.05
2018-02-06T16:43:02.571Z,101265.51
2018-02-06T16:45:30.200Z,101265.66
2018-02-06T16:47:57.836Z,101258.80
2018-02-06T16:50:25.427Z,101263.92
2018-02-06T16:52:53.106Z,101265.26
2018-02-06T16:55:20.811Z,101257.52
2018-02-06T16:57:48.402Z,101262.30
2018-02-06T17:00:15.992Z,101255.13
2018-02-06T17:02:43.590Z,101253.95
2018-02-06T17:05:12.123Z,101254.81
2018-02-06T17:07:39.715Z,101260.01
2018-02-06T17:10:07.304Z,101254.95
2018-02-06T17:12:34.895Z,101251.52
2018-02-06T17:15:02.593Z,101253.77
2018-02-06T17:17:30.222Z,101248.19
2018-02-06T17:19:57.810Z,101246.11
2018-02-06T17:22:25.524Z,101244.38
2018-02-06T17:24:53.112Z,101249.09
2018-02-06T17:27:20.701Z,101257.63
2018-02-06T17:29:48.296Z,101259.83
2018-02-06T17:32:15.986Z,101260.36
2018-02-06T17:34:43.571Z,101258.20
2018-02-06T17:37:11.166Z,101252.70
2018-02-06T17:39:38.808Z,101252.72
2018-02-06T17:42:06.374Z,101251.34
2018-02-06T17:44:34.376Z,101253.50
2018-02-06T17:47:01.958Z,101257.32
2018-02-06T17:49:29.579Z,101262.49
2018-02-06T17:51:57.163Z,101265.47
2018-02-06T17:54:24.814Z,101260.05
2018-02-06T17:56:52.440Z,101265.98
2018-02-06T17:59:20.114Z,101261.75
2018-02-06T18:01:47.729Z,101256.20
2018-02-06T18:04:15.323Z,101263.41
2018-02-06T18:06:42.902Z,101254.45
2018-02-06T18:09:10.485Z,101246.38
2018-02-06T18:11:38.072Z,101242.89
2018-02-06T18:14:05.758Z,101245.07
2018-02-06T18:16:33.451Z,101243.77
2018-02-06T18:19:01.046Z,101250.50
2018-02-06T18:21:28.634Z,101242.34
2018-02-06T18:23:56.224Z,101248.70
2018-02-06T18:26:23.815Z,101250.34
2018-02-06T18:28:51.453Z,101243.08
2018-02-06T18:31:19.105Z,101243.45
2018-02-06T18:33:46.674Z,101240.35
2018-02-06T18:36:14.461Z,101241.55
2018-02-06T18:38:42.160Z,101235.97
2018-02-06T18:41:10.122Z,101226.50
2018-02-06T18:43:37.910Z,101226.41
2018-02-06T18:46:05.537Z,101233.94
2018-02-06T18:48:33.391Z,101230.53
2018-02-06T18:51:00.984Z,101231.78
2018-02-06T18:53:28.616Z,101222.78
2018-02-06T18:55:56.194Z,101222.28
2018-02-06T18:58:23.884Z,101220.22
2018-02-06T19:00:51.483Z,101222.98
2018-02-06T19:03:19.075Z,101220.94
2018-02-06T19:05:46.726Z,101230.77
2018-02-06T19:08:14.330Z,101222.62
2018-02-06T19:10:41.906Z,101226.86
2018-02-06T19:13:09.516Z,101223.44
2018-02-06T19:15:37.105Z,101220.02
2018-02-06T19:18:04.692Z,101218.08
2018-02-06T19:20:32.427Z,101219.83
2018-02-06T19:23:00.105Z,101217.65
2018-02-06T19:25:27.790Z,101214.20
2018-02-06T19:27:55.374Z,101213.77
2018-02-06T19:30:23.040Z,101211.46
2018-02-06T19:32:50.627Z,101221.36
2018-02-06T19:35:18.252Z,101221.50
2018-02-06T19:37:45.827Z,101228.89
2018-02-06T19:40:14.167Z,101232.73
2018-02-06T19:42:41.751Z,101233.98
2018-02-06T19:45:09.337Z,101225.51
2018-02-06T19:47:36.927Z,101222.02
2018-02-06T19:50:04.515Z,101206.55
2018-02-06T19:52:32.251Z,101207.47
2018-02-06T19:54:59.928Z,101219.83
2018-02-06T19:57:27.591Z,101218.05
2018-02-06T19:59:55.173Z,101203.23
2018-02-06T20:02:22.758Z,101203.55
2018-02-06T20:04:50.351Z,101208.50
2018-02-06T20:07:17.939Z,101205.73
2018-02-06T20:09:45.650Z,101206.65
2018-02-06T20:12:13.320Z,101192.94
2018-02-06T20:14:40.900Z,101193.37
2018-02-06T20:17:08.478Z,101202.70
2018-02-06T20:19:36.099Z,101200.88
2018-02-06T20:22:03.683Z,101204.27
2018-02-06T20:24:31.557Z,101200.77
2018-02-06T20:26:59.143Z,101207.69
2018-02-06T20:29:26.732Z,101208.90
2018-02-06T20:31:54.415Z,101219.16
2018-02-06T20:34:22.007Z,101213.34
2018-02-06T20:36:49.594Z,101211.91
2018-02-06T20:39:17.202Z,101207.56
2018-02-06T20:41:44.794Z,101205.96
2018-02-06T20:44:12.374Z,101214.93
2018-02-06T20:46:39.986Z,101208.92
2018-02-06T20:49:08.308Z,101224.69
2018-02-06T20:51:35.901Z,101216.41
2018-02-06T20:54:03.844Z,101220.16
2018-02-06T20:56:32.329Z,101219.85
2018-02-06T20:59:00.193Z,101213.08
2018-02-06T21:01:28.069Z,101214.39
2018-02-06T21:03:56.131Z,101209.42
2018-02-06T21:06:24.110Z,101202.08
2018-02-06T21:08:52.655Z,101202.41
2018-02-06T21:11:20.560Z,101199.72
2018-02-06T21:13:48.583Z,101191.31
2018-02-06T21:16:17.429Z,101189.11
2018-02-06T21:18:45.635Z,101187.86
2018-02-06T21:21:15.202Z,101191.28
2018-02-06T21:23:43.949Z,101186.22
2018-02-06T21:26:11.877Z,101186.22
2018-02-06T21:28:40.789Z,101183.63
2018-02-06T21:31:08.966Z,101185.30
2018-02-06T21:33:36.816Z,101182.27
2018-02-06T21:36:04.478Z,101175.05
2018-02-06T21:38:32.067Z,101186.88
2018-02-06T21:40:59.699Z,101190.69
2018-02-06T21:43:27.288Z,101191.70
2018-02-06T21:45:54.958Z,101199.75
2018-02-06T21:48:22.576Z,101205.34
2018-02-06T21:50:50.198Z,101201.06
2018-02-06T21:53:17.839Z,101202.77
2018-02-06T21:55:45.436Z,101188.75
2018-02-06T21:58:13.200Z,101194.79
2018-02-06T22:00:40.834Z,101199.36
2018-02-06T22:03:08.462Z,101198.47
2018-02-06T22:05:36.046Z,101190.26
2018-02-06T22:08:05.314Z,101190.33
2018-02-06T22:10:33.052Z,101190.75
2018-02-06T22:13:00.781Z,101184.94
2018-02-06T22:15:28.499Z,101180.08
2018-02-06T22:17:56.119Z,101181.06
2018-02-06T22:20:23.725Z,101187.47
2018-02-06T22:22:52.410Z,101180.30
2018-02-06T22:25:20.198Z,101180.14
2018-02-06T22:27:47.836Z,101175.87
2018-02-06T22:30:15.469Z,101180.27
2018-02-06T22:32:43.135Z,101180.27
2018-02-06T22:35:10.769Z,101177.19
2018-02-06T22:37:38.606Z,101179.84
2018-02-06T22:40:06.460Z,101176.92
2018-02-06T22:42:34.092Z,101170.45
2018-02-06T22:45:01.705Z,101177.84
2018-02-06T22:47:29.397Z,101173.11
2018-02-06T22:49:57.083Z,101183.81
2018-02-06T22:52:24.882Z,101185.36
2018-02-06T22:54:52.509Z,101185.88
2018-02-06T22:57:20.124Z,101185.88
2018-02-06T22:59:48.615Z,101188.88
2018-02-06T23:02:16.230Z,101185.06
2018-02-06T23:04:43.907Z,101178.72
2018-02-06T23:07:11.565Z,101178.95
2018-02-06T23:09:39.439Z,101182.47
2018-02-06T23:12:07.218Z,101178.17
2018-02-06T23:14:35.408Z,101175.45
2018-02-06T23:17:03.424Z,101173.67
2018-02-06T23:19:31.033Z,101168.55
2018-02-06T23:21:58.672Z,101176.40
2018-02-06T23:30:11.907Z,101172.66
2018-02-06T23:32:39.495Z,101170.19
2018-02-06T23:35:07.076Z,101171.41
2018-02-06T23:37:34.655Z,101171.89
2018-02-06T23:40:02.336Z,101172.77
2018-02-06T23:42:29.997Z,101166.83
2018-02-06T23:44:57.614Z,101172.10
2018-02-06T23:47:25.199Z,101174.60
2018-02-06T23:49:52.780Z,101160.00
2018-02-06T23:52:20.360Z,101164.82
2018-02-06T23:54:47.940Z,101167.20
2018-02-06T23:57:15.632Z,101170.25
2018-02-06T23:59:43.344Z,101174.97
